createdAt,value
2023-01-20T00:01:39.976Z,63.77
2023-01-20T00:04:06.743Z,64.00
2023-01-20T00:06:33.357Z,63.75
2023-01-20T00:09:01.899Z,63.47
2023-01-20T00:11:28.858Z,63.32
2023-01-20T00:13:56.602Z,63.42
2023-01-20T00:16:23.854Z,63.21
2023-01-20T00:18:50.284Z,63.69
2023-01-20T00:21:16.904Z,63.71
2023-01-20T00:23:44.107Z,63.84
2023-01-20T00:26:13.252Z,63.78
2023-01-20T00:28:39.660Z,63.47
2023-01-20T00:31:16.841Z,63.96
2023-01-20T00:33:44.104Z,63.84
2023-01-20T00:36:11.783Z,63.32
2023-01-20T00:38:38.607Z,63.78
2023-01-20T00:41:05.324Z,63.25
2023-01-20T00:43:31.679Z,63.49
2023-01-20T00:45:58.003Z,63.32
2023-01-20T00:48:24.342Z,63.61
2023-01-20T00:50:50.792Z,63.20
2023-01-20T00:53:17.696Z,63.38
2023-01-20T00:55:44.212Z,62.84
2023-01-20T00:58:10.563Z,63.48
2023-01-20T01:00:37.140Z,63.49
2023-01-20T01:03:03.724Z,63.96
2023-01-20T01:05:30.107Z,63.58
2023-01-20T01:07:56.443Z,63.86
2023-01-20T01:10:23.008Z,63.74
2023-01-20T01:12:49.414Z,63.91
2023-01-20T01:15:15.864Z,63.50
2023-01-20T01:17:44.017Z,63.80
2023-01-20T01:20:14.515Z,63.47
2023-01-20T01:22:40.958Z,63.77
2023-01-20T01:25:07.698Z,64.14
2023-01-20T01:27:34.095Z,64.09
2023-01-20T01:30:00.483Z,64.16
2023-01-20T01:32:27.444Z,63.89
2023-01-20T01:34:53.976Z,64.04
2023-01-20T01:37:20.292Z,63.93
2023-01-20T01:39:46.614Z,63.42
2023-01-20T01:42:18.625Z,63.52
2023-01-20T01:45:10.161Z,63.60
2023-01-20T01:47:48.047Z,63.55
2023-01-20T01:50:20.187Z,63.68
2023-01-20T01:52:50.629Z,63.86
2023-01-20T01:55:19.192Z,63.54
2023-01-20T01:57:46.996Z,63.52
2023-01-20T02:00:13.575Z,64.72
2023-01-20T02:02:43.374Z,64.61
2023-01-20T02:05:11.897Z,64.44
2023-01-20T02:07:39.142Z,64.11
2023-01-20T02:10:06.060Z,63.88
2023-01-20T02:12:33.069Z,64.17
2023-01-20T02:15:02.912Z,64.23
2023-01-20T02:18:06.860Z,63.56
2023-01-20T02:21:04.056Z,63.97
2023-01-20T02:23:53.010Z,63.74
2023-01-20T02:26:43.592Z,63.87
2023-01-20T02:29:40.169Z,63.52
2023-01-20T02:32:47.491Z,64.24
2023-01-20T02:35:32.951Z,64.57
2023-01-20T02:38:21.336Z,64.46
2023-01-20T02:40:57.511Z,64.02
2023-01-20T02:43:34.128Z,64.05
2023-01-20T02:46:07.343Z,64.26
2023-01-20T02:48:44.469Z,65.00
2023-01-20T02:51:25.523Z,64.63
2023-01-20T02:53:59.615Z,64.11
2023-01-20T02:56:29.026Z,64.33
2023-01-20T02:59:07.774Z,64.94
2023-01-20T03:01:39.988Z,64.21
2023-01-20T03:04:10.095Z,63.96
2023-01-20T03:06:40.853Z,64.44
2023-01-20T03:09:11.008Z,64.20
2023-01-20T03:11:44.006Z,64.64
2023-01-20T03:14:15.475Z,64.80
2023-01-20T03:16:42.587Z,64.27
2023-01-20T03:19:10.101Z,64.70
2023-01-20T03:21:36.744Z,64.80
2023-01-20T03:24:05.103Z,65.40
2023-01-20T03:26:31.466Z,65.38
2023-01-20T03:28:58.958Z,64.91
2023-01-20T03:31:34.104Z,65.23
2023-01-20T03:34:03.533Z,65.93
2023-01-20T03:36:32.321Z,65.37
2023-01-20T03:38:59.888Z,64.98
2023-01-20T03:41:46.876Z,64.68
2023-01-20T03:44:31.676Z,64.74
2023-01-20T03:47:51.858Z,65.51
2023-01-20T03:50:28.157Z,65.34
2023-01-20T03:53:01.436Z,65.03
2023-01-20T03:55:44.832Z,65.06
2023-01-20T03:58:16.061Z,65.77
2023-01-20T04:00:46.054Z,65.01
2023-01-20T04:03:19.042Z,65.27
2023-01-20T04:05:47.696Z,65.11
2023-01-20T04:08:16.399Z,65.09
2023-01-20T04:10:46.685Z,64.63
2023-01-20T04:13:14.343Z,64.17
2023-01-20T04:15:45.223Z,64.86
2023-01-20T04:18:17.129Z,64.73
2023-01-20T04:20:45.940Z,64.63
2023-01-20T04:23:23.996Z,64.74
2023-01-20T04:25:50.355Z,65.17
2023-01-20T04:28:16.698Z,65.34
2023-01-20T04:30:43.144Z,64.83
2023-01-20T04:33:09.593Z,65.09
2023-01-20T04:35:35.966Z,65.29
2023-01-20T04:38:02.483Z,65.23
2023-01-20T04:40:28.999Z,65.03
2023-01-20T04:42:55.416Z,65.26
2023-01-20T04:45:21.820Z,65.59
2023-01-20T04:47:48.154Z,65.92
2023-01-20T04:50:15.317Z,65.41
2023-01-20T04:52:42.318Z,65.54
2023-01-20T04:55:09.332Z,65.00
2023-01-20T04:57:35.753Z,65.04
2023-01-20T05:00:02.384Z,64.84
2023-01-20T05:02:28.853Z,64.63
2023-01-20T05:04:55.225Z,64.55
2023-01-20T05:07:21.906Z,64.94
2023-01-20T05:09:48.244Z,65.09
2023-01-20T05:12:15.289Z,65.36
2023-01-20T05:14:41.696Z,65.27
2023-01-20T05:17:08.024Z,65.82
2023-01-20T05:19:34.350Z,65.71
2023-01-20T05:22:00.663Z,66.75
2023-01-20T05:24:27.063Z,66.75
2023-01-20T05:26:53.416Z,66.63
2023-01-20T05:29:19.755Z,67.15
2023-01-20T05:31:47.628Z,66.87
2023-01-20T05:34:14.019Z,67.03
2023-01-20T05:36:40.348Z,66.65
2023-01-20T05:39:06.908Z,66.91
2023-01-20T05:41:33.423Z,69.00
2023-01-20T05:43:59.810Z,68.84
2023-01-20T05:46:26.271Z,68.35
2023-01-20T05:48:52.665Z,67.61
2023-01-20T05:51:19.055Z,67.11
2023-01-20T05:53:45.400Z,66.95
2023-01-20T05:56:15.649Z,66.79
2023-01-20T05:58:42.169Z,66.90
2023-01-20T06:01:11.040Z,67.95
2023-01-20T06:03:38.378Z,68.56
2023-01-20T06:06:07.622Z,68.88
2023-01-20T06:08:35.249Z,68.62
2023-01-20T06:11:01.649Z,68.11
2023-01-20T06:13:28.013Z,69.47
2023-01-20T06:15:55.550Z,69.88
2023-01-20T06:18:22.847Z,69.45
2023-01-20T06:20:49.458Z,70.57
2023-01-20T06:23:16.564Z,72.38
2023-01-20T06:25:43.844Z,72.81
2023-01-20T06:28:10.243Z,73.85
2023-01-20T06:30:36.837Z,73.02
2023-01-20T06:33:04.181Z,72.10
2023-01-20T06:35:30.524Z,70.79
2023-01-20T06:37:59.649Z,71.11
2023-01-20T06:40:25.973Z,71.19
2023-01-20T06:42:52.305Z,72.35
2023-01-20T06:45:18.709Z,72.13
2023-01-20T06:47:49.103Z,71.50
2023-01-20T06:50:17.523Z,72.29
2023-01-20T06:52:43.846Z,73.13
2023-01-20T06:55:10.192Z,74.54
2023-01-20T06:57:36.530Z,75.42
2023-01-20T07:00:04.074Z,76.45
2023-01-20T07:02:30.460Z,76.07
2023-01-20T07:04:56.785Z,74.67
2023-01-20T07:07:23.109Z,73.67
2023-01-20T07:09:50.485Z,73.70
2023-01-20T07:12:16.871Z,74.93
2023-01-20T07:14:43.258Z,74.54
2023-01-20T07:17:12.290Z,73.21
2023-01-20T07:19:38.643Z,72.76
2023-01-20T07:22:04.957Z,73.35
2023-01-20T07:24:31.255Z,73.70
2023-01-20T07:26:57.606Z,73.58
2023-01-20T07:29:24.033Z,73.46
2023-01-20T07:31:50.446Z,73.30
2023-01-20T07:34:16.875Z,72.95
2023-01-20T07:36:43.286Z,73.52
2023-01-20T07:39:13.042Z,74.01
2023-01-20T07:41:39.433Z,73.58
2023-01-20T07:44:05.777Z,74.59
2023-01-20T07:46:32.139Z,75.36
2023-01-20T07:48:58.516Z,75.00
2023-01-20T07:51:24.856Z,74.89
2023-01-20T07:53:51.839Z,74.80
2023-01-20T07:56:23.897Z,74.55
2023-01-20T07:58:50.712Z,75.85
2023-01-20T08:01:31.200Z,76.06
2023-01-20T08:04:00.352Z,75.36
2023-01-20T08:06:27.005Z,75.44
2023-01-20T08:08:54.471Z,75.75
2023-01-20T08:11:22.223Z,76.12
2023-01-20T08:13:49.185Z,77.16
2023-01-20T08:16:17.201Z,76.82
2023-01-20T08:18:43.975Z,76.15
2023-01-20T08:21:22.679Z,75.73
2023-01-20T08:23:49.173Z,74.76
2023-01-20T08:26:15.784Z,73.45
2023-01-20T08:28:42.243Z,72.42
2023-01-20T08:31:10.594Z,72.17
2023-01-20T08:33:37.672Z,71.85
2023-01-20T08:36:06.831Z,72.16
2023-01-20T08:38:33.957Z,72.25
2023-01-20T08:41:00.309Z,71.86
2023-01-20T08:43:26.805Z,71.75
2023-01-20T08:46:08.762Z,72.20
2023-01-20T08:48:36.445Z,73.09
2023-01-20T08:51:09.487Z,73.50
2023-01-20T08:53:35.932Z,72.55
2023-01-20T08:56:03.344Z,71.78
2023-01-20T08:58:29.731Z,70.77
2023-01-20T09:00:56.618Z,72.62
2023-01-20T09:03:23.419Z,73.98
2023-01-20T09:05:50.297Z,73.49
2023-01-20T09:08:19.105Z,74.16
2023-01-20T09:10:46.874Z,73.78
2023-01-20T09:13:13.234Z,73.01
2023-01-20T09:15:39.744Z,73.21
2023-01-20T09:18:06.231Z,73.97
2023-01-20T09:20:32.700Z,74.15
2023-01-20T09:23:02.976Z,75.57
2023-01-20T09:25:29.393Z,75.94
2023-01-20T09:27:55.759Z,75.63
2023-01-20T09:30:22.232Z,75.71
2023-01-20T09:32:52.944Z,75.95
2023-01-20T09:35:19.302Z,75.51
2023-01-20T09:38:04.608Z,74.98
2023-01-20T09:41:19.020Z,72.96
2023-01-20T09:44:27.154Z,72.28
2023-01-20T09:47:20.356Z,73.23
2023-01-20T09:50:16.512Z,73.49
2023-01-20T09:53:01.963Z,73.21
2023-01-20T09:55:40.765Z,73.58
2023-01-20T09:58:11.219Z,72.60
2023-01-20T10:00:40.890Z,73.00
2023-01-20T10:03:15.929Z,72.71
2023-01-20T10:05:44.948Z,72.61
2023-01-20T10:08:20.838Z,72.45
2023-01-20T10:11:13.914Z,72.12
2023-01-20T10:14:03.111Z,71.87
2023-01-20T10:17:01.901Z,70.21
2023-01-20T10:19:35.013Z,70.63
2023-01-20T10:22:14.989Z,70.80
2023-01-20T10:24:52.747Z,71.61
2023-01-20T10:27:19.319Z,71.35
2023-01-20T10:29:50.108Z,71.43
2023-01-20T10:32:36.195Z,70.96
2023-01-20T10:35:15.486Z,71.19
2023-01-20T10:37:42.586Z,69.05
2023-01-20T10:40:35.311Z,69.87
2023-01-20T10:43:10.887Z,70.37
2023-01-20T10:45:58.672Z,69.96
2023-01-20T10:48:50.076Z,70.15
2023-01-20T10:51:28.456Z,70.30
2023-01-20T10:54:08.784Z,70.12
2023-01-20T10:56:44.054Z,69.79
2023-01-20T10:59:20.139Z,69.56
2023-01-20T11:01:59.269Z,69.97
2023-01-20T11:04:34.011Z,69.74
2023-01-20T11:07:00.959Z,68.21
2023-01-20T11:09:34.261Z,68.31
2023-01-20T11:12:06.396Z,68.30
2023-01-20T11:14:33.783Z,68.27
2023-01-20T11:17:06.350Z,67.80
2023-01-20T11:20:06.647Z,67.54
2023-01-20T11:22:36.315Z,67.07
2023-01-20T11:25:04.787Z,67.70
2023-01-20T11:27:42.404Z,66.99
2023-01-20T11:30:26.373Z,66.96
2023-01-20T11:33:25.020Z,67.54
2023-01-20T11:36:03.757Z,67.17
2023-01-20T11:38:48.028Z,67.02
2023-01-20T11:41:19.988Z,67.34
2023-01-20T11:43:47.179Z,66.62
2023-01-20T11:46:29.146Z,67.35
2023-01-20T11:49:19.341Z,67.06
2023-01-20T11:51:56.669Z,67.08
2023-01-20T11:54:30.148Z,67.13
2023-01-20T11:57:07.541Z,66.61
2023-01-20T11:59:36.291Z,66.18
2023-01-20T12:02:08.453Z,66.53
2023-01-20T12:04:34.793Z,66.85
2023-01-20T12:07:20.054Z,66.37
2023-01-20T12:09:50.974Z,65.86
2023-01-20T12:12:46.437Z,66.90
2023-01-20T12:15:22.227Z,66.60
2023-01-20T12:17:48.487Z,66.33
2023-01-20T12:20:21.032Z,65.75
2023-01-20T12:23:22.789Z,65.54
2023-01-20T12:25:58.043Z,65.28
2023-01-20T12:28:37.236Z,64.47
2023-01-20T12:31:06.211Z,64.00
2023-01-20T12:33:36.914Z,63.75
2023-01-20T12:36:28.265Z,63.22
2023-01-20T12:39:16.325Z,63.43
2023-01-20T12:41:56.839Z,63.76
2023-01-20T12:44:40.914Z,64.79
2023-01-20T12:47:35.545Z,65.01
2023-01-20T12:50:20.530Z,64.94
2023-01-20T12:53:05.956Z,64.05
2023-01-20T12:55:52.468Z,63.94
2023-01-20T12:58:39.895Z,64.18
2023-01-20T13:01:34.076Z,64.06
2023-01-20T13:04:35.632Z,62.55
2023-01-20T13:07:13.150Z,63.17
2023-01-20T13:10:16.427Z,63.48
2023-01-20T13:13:17.119Z,63.20
2023-01-20T13:16:10.945Z,63.13
2023-01-20T13:18:54.194Z,62.30
2023-01-20T13:21:21.272Z,61.60
2023-01-20T13:23:50.281Z,58.66
2023-01-20T13:26:18.048Z,59.24
2023-01-20T13:28:55.311Z,58.90
2023-01-20T13:31:33.058Z,57.14
2023-01-20T13:34:21.111Z,58.28
2023-01-20T13:37:03.237Z,58.18
2023-01-20T13:39:29.682Z,58.18
2023-01-20T13:41:56.116Z,57.57
2023-01-20T13:44:39.955Z,57.08
2023-01-20T13:47:09.428Z,58.18
2023-01-20T13:49:41.744Z,57.50
2023-01-20T13:52:10.295Z,55.76
2023-01-20T13:54:40.855Z,55.27
2023-01-20T13:57:24.027Z,54.58
2023-01-20T13:59:50.737Z,53.25
2023-01-20T14:02:21.428Z,53.47
2023-01-20T14:04:48.154Z,54.17
2023-01-20T14:07:27.583Z,54.77
2023-01-20T14:09:59.245Z,56.79
2023-01-20T14:12:26.117Z,56.01
2023-01-20T14:14:52.747Z,55.04
2023-01-20T14:17:21.711Z,55.63
2023-01-20T14:19:50.449Z,56.17
2023-01-20T14:22:22.452Z,56.31
2023-01-20T14:24:52.536Z,57.09
2023-01-20T14:27:21.884Z,56.56
2023-01-20T14:29:53.664Z,56.60
2023-01-20T14:32:26.258Z,56.18
2023-01-20T14:34:53.176Z,58.37
2023-01-20T14:37:31.341Z,55.25
2023-01-20T14:40:00.488Z,56.68
2023-01-20T14:42:28.863Z,56.72
2023-01-20T14:44:56.798Z,55.76
2023-01-20T14:47:25.161Z,55.24
2023-01-20T14:49:53.208Z,56.31
2023-01-20T14:52:28.423Z,56.70
2023-01-20T14:54:56.536Z,58.22
2023-01-20T14:57:43.285Z,57.15
2023-01-20T15:00:19.198Z,57.91
2023-01-20T15:03:10.280Z,57.31
2023-01-20T15:05:41.682Z,57.66
2023-01-20T15:08:26.031Z,58.52
2023-01-20T15:11:11.840Z,57.66
2023-01-20T15:13:39.509Z,57.67
2023-01-20T15:16:24.254Z,59.35
2023-01-20T15:19:16.244Z,60.71
2023-01-20T15:21:49.948Z,60.25
2023-01-20T15:24:18.487Z,59.68
2023-01-20T15:26:46.816Z,60.14
2023-01-20T15:29:21.757Z,59.51
2023-01-20T15:31:48.675Z,59.69
2023-01-20T15:34:15.110Z,60.79
2023-01-20T15:36:41.593Z,62.05
2023-01-20T15:39:12.516Z,62.03
2023-01-20T15:41:39.244Z,62.08
2023-01-20T15:44:05.839Z,61.38
2023-01-20T15:46:32.724Z,61.82
2023-01-20T15:48:59.115Z,61.27
2023-01-20T15:51:25.444Z,61.08
2023-01-20T15:53:51.869Z,60.70
2023-01-20T15:56:25.392Z,61.76
2023-01-20T15:58:52.301Z,61.58
2023-01-20T16:01:23.700Z,61.85
2023-01-20T16:03:55.123Z,61.87
2023-01-20T16:06:27.547Z,62.46
2023-01-20T16:08:53.924Z,63.35
2023-01-20T16:11:20.358Z,63.51
2023-01-20T16:13:46.823Z,63.46
2023-01-20T16:16:19.216Z,63.69
2023-01-20T16:18:46.041Z,63.37
2023-01-20T16:21:14.692Z,63.67
2023-01-20T16:23:41.908Z,63.42
2023-01-20T16:26:23.815Z,63.89
2023-01-20T16:28:51.870Z,64.21
2023-01-20T16:31:18.737Z,64.12
2023-01-20T16:33:45.419Z,64.14
2023-01-20T16:36:17.029Z,64.66
2023-01-20T16:38:44.428Z,64.80
2023-01-20T16:41:21.281Z,65.42
2023-01-20T16:43:47.877Z,65.26
2023-01-20T16:46:19.076Z,65.76
2023-01-20T16:48:46.122Z,65.53
2023-01-20T16:51:25.283Z,65.61
2023-01-20T16:53:52.444Z,64.22
2023-01-20T16:56:21.686Z,65.00
2023-01-20T16:58:53.617Z,65.03
2023-01-20T17:01:30.462Z,64.87
2023-01-20T17:04:02.086Z,64.79
2023-01-20T17:06:31.515Z,65.03
2023-01-20T17:08:59.557Z,64.34
2023-01-20T17:11:28.359Z,63.84
2023-01-20T17:13:55.552Z,63.95
2023-01-20T17:16:22.767Z,64.23
2023-01-20T17:18:50.790Z,63.66
2023-01-20T17:21:20.434Z,62.95
2023-01-20T17:23:59.950Z,62.67
2023-01-20T17:26:26.520Z,63.05
2023-01-20T17:29:03.889Z,63.09
2023-01-20T17:31:36.520Z,64.42
2023-01-20T17:34:06.733Z,64.59
2023-01-20T17:36:34.499Z,64.96
2023-01-20T17:39:02.467Z,65.21
2023-01-20T17:41:28.791Z,65.44
2023-01-20T17:43:55.195Z,65.96
2023-01-20T17:46:24.239Z,66.07
2023-01-20T17:48:51.012Z,66.34
2023-01-20T17:51:22.621Z,66.24
2023-01-20T17:53:50.330Z,66.68
2023-01-20T17:56:18.342Z,66.21
2023-01-20T17:58:46.720Z,66.07
2023-01-20T18:01:21.432Z,66.87
2023-01-20T18:03:49.693Z,66.86
2023-01-20T18:06:18.344Z,67.19
2023-01-20T18:08:49.394Z,66.79
2023-01-20T18:11:16.028Z,66.79
2023-01-20T18:13:45.008Z,66.59
2023-01-20T18:16:13.966Z,66.76
2023-01-20T18:18:41.726Z,66.60
2023-01-20T18:21:17.700Z,66.96
2023-01-20T18:23:45.402Z,66.28
2023-01-20T18:26:14.000Z,66.13
2023-01-20T18:28:41.275Z,66.44
2023-01-20T18:31:10.542Z,66.01
2023-01-20T18:33:41.411Z,65.64
2023-01-20T18:36:09.466Z,66.37
2023-01-20T18:38:35.934Z,66.21
2023-01-20T18:41:02.815Z,66.47
2023-01-20T18:43:30.218Z,66.48
2023-01-20T18:45:56.598Z,66.09
2023-01-20T18:48:24.999Z,66.53
2023-01-20T18:50:52.151Z,66.72
2023-01-20T18:53:18.556Z,67.19
2023-01-20T18:55:44.892Z,66.69
2023-01-20T18:58:11.298Z,66.55
2023-01-20T19:00:37.973Z,66.89
2023-01-20T19:03:04.791Z,67.30
2023-01-20T19:05:31.979Z,67.57
2023-01-20T19:07:58.304Z,66.85
2023-01-20T19:10:24.658Z,66.49
2023-01-20T19:12:52.191Z,66.46
2023-01-20T19:15:18.691Z,66.28
2023-01-20T19:17:45.056Z,65.41
2023-01-20T19:20:11.560Z,64.89
2023-01-20T19:22:39.129Z,64.18
2023-01-20T19:25:05.939Z,63.95
2023-01-20T19:27:32.280Z,63.42
2023-01-20T19:29:58.741Z,63.65
2023-01-20T19:32:26.511Z,64.59
2023-01-20T19:34:52.830Z,64.88
2023-01-20T19:37:19.209Z,65.71
2023-01-20T19:39:45.562Z,65.67
2023-01-20T19:42:11.901Z,65.04
2023-01-20T19:44:38.229Z,66.63
2023-01-20T19:47:04.886Z,66.73
2023-01-20T19:49:31.395Z,65.94
2023-01-20T19:51:59.605Z,66.57
2023-01-20T19:54:28.457Z,66.93
2023-01-20T19:56:54.941Z,66.80
2023-01-20T19:59:21.413Z,66.86
2023-01-20T20:01:47.904Z,66.58
2023-01-20T20:04:14.396Z,67.23
2023-01-20T20:06:48.522Z,67.54
2023-01-20T20:09:23.328Z,67.30
2023-01-20T20:11:49.963Z,67.75
2023-01-20T20:14:19.041Z,68.42
2023-01-20T20:16:46.485Z,69.08
2023-01-20T20:19:16.038Z,68.16
2023-01-20T20:21:43.365Z,67.63
2023-01-20T20:24:13.760Z,68.06
2023-01-20T20:26:40.980Z,68.56
2023-01-20T20:29:08.494Z,68.88
2023-01-20T20:31:37.495Z,68.64
2023-01-20T20:34:06.217Z,68.46
2023-01-20T20:36:33.560Z,68.28
2023-01-20T20:39:04.813Z,67.95
2023-01-20T20:41:33.110Z,68.40
2023-01-20T20:44:00.764Z,68.65
2023-01-20T20:46:28.473Z,68.91
2023-01-20T20:48:56.287Z,69.84
2023-01-20T20:51:24.052Z,69.16
2023-01-20T20:53:54.247Z,69.53
2023-01-20T20:56:21.172Z,69.90
2023-01-20T20:59:00.456Z,69.58
2023-01-20T21:01:29.204Z,69.34
2023-01-20T21:03:57.444Z,68.78
2023-01-20T21:06:23.919Z,68.89
2023-01-20T21:08:50.343Z,68.61
2023-01-20T21:11:16.773Z,67.72
2023-01-20T21:13:44.306Z,66.76
2023-01-20T21:16:16.584Z,66.67
2023-01-20T21:18:43.149Z,66.16
2023-01-20T21:21:14.296Z,65.19
2023-01-20T21:23:40.933Z,64.58
2023-01-20T21:26:11.556Z,64.47
2023-01-20T21:28:39.576Z,64.15
2023-01-20T21:31:07.657Z,63.48
2023-01-20T21:33:34.055Z,63.91
2023-01-20T21:36:04.129Z,63.00
2023-01-20T21:38:31.358Z,63.42
2023-01-20T21:41:02.861Z,62.99
2023-01-20T21:43:51.692Z,63.29
2023-01-20T21:46:18.673Z,63.67
2023-01-20T21:49:03.810Z,63.15
2023-01-20T21:51:48.571Z,63.94
2023-01-20T21:54:15.078Z,64.41
2023-01-20T21:56:41.422Z,65.08
2023-01-20T21:59:07.821Z,64.53
2023-01-20T22:01:34.594Z,64.27
2023-01-20T22:04:01.338Z,64.02
2023-01-20T22:06:28.077Z,64.09
2023-01-20T22:08:54.444Z,64.33
2023-01-20T22:11:20.836Z,64.73
2023-01-20T22:13:47.167Z,63.93
2023-01-20T22:16:13.529Z,63.34
2023-01-20T22:18:39.877Z,63.73
2023-01-20T22:21:07.550Z,62.83
2023-01-20T22:23:35.246Z,62.89
2023-01-20T22:26:02.069Z,62.73
2023-01-20T22:28:38.834Z,63.23
2023-01-20T22:31:19.683Z,63.19
2023-01-20T22:33:53.099Z,63.04
2023-01-20T22:36:20.609Z,62.75
2023-01-20T22:38:49.355Z,62.60
2023-01-20T22:41:15.860Z,62.62
2023-01-20T22:43:45.514Z,62.41
2023-01-20T22:46:13.575Z,62.09
2023-01-20T22:48:41.035Z,62.04
2023-01-20T22:51:10.423Z,62.48
2023-01-20T22:53:37.954Z,62.89
2023-01-20T22:56:06.219Z,62.99
2023-01-20T22:58:33.579Z,63.25
2023-01-20T23:01:00.697Z,62.89
2023-01-20T23:03:27.360Z,62.52
2023-01-20T23:05:56.869Z,63.04
2023-01-20T23:08:24.576Z,63.05
2023-01-20T23:10:54.832Z,62.86
2023-01-20T23:13:21.353Z,63.26
2023-01-20T23:15:47.837Z,63.27
2023-01-20T23:18:14.176Z,62.99
2023-01-20T23:20:40.701Z,63.28
2023-01-20T23:23:07.372Z,63.77
2023-01-20T23:25:34.006Z,63.63
2023-01-20T23:28:00.421Z,63.64
2023-01-20T23:30:26.767Z,63.26
2023-01-20T23:32:53.508Z,63.47
2023-01-20T23:35:19.944Z,63.60
2023-01-20T23:37:46.999Z,64.31
2023-01-20T23:40:13.348Z,63.59
2023-01-20T23:42:39.675Z,63.42
2023-01-20T23:45:06.665Z,63.31
2023-01-20T23:47:33.186Z,63.54
2023-01-20T23:49:59.548Z,63.54
2023-01-20T23:52:26.197Z,63.57
2023-01-20T23:54:53.271Z,64.13
2023-01-20T23:57:19.981Z,64.61
2023-01-20T23:59:46.354Z,64.45
